Lucena, Brazil
Current Conditions -  °F | °C
As of 3:00 PM on Tuesday 27 Jan 2015 (Local Time) from SBJP Reporting Station
Few Clouds Few Clouds  
Wind Chill: 86°   Ceiling: Unl
Heat Index: 87°   Visibility: 6mi
Dew Point: 64°   Wind: 14mph
Humidity: 48%   Direction: 120°ESE
Pressure: 29.91"   Gusts: NA
Location:  6.9°S, 34.87°W
Report Text: SBJP 271800Z 12012KT 9999 FEW030 30/18 Q1013
Loading
Personal Weather Stations






























Interactive Weather Map New forecast layout! Learn more

10-Day Weather Forecast

Advertisements
Track Severe Weather on mobile